Santa Cruz do Sul, Brazil
Current Conditions -  °F | °C
As of 12:00 AM on Friday 21 Nov 2014 (Local Time) from SBSM Reporting Station
Broken Clouds Broken Clouds  
Wind Chill: 75°   Ceiling: 10000
Heat Index: 75°   Visibility: 6mi
Dew Point: 68°   Wind: 13mph
Humidity: 78%   Direction: 110°ESE
Pressure: 29.88"   Gusts: NA
Location:  29.71°S, 52.44°W
Report Text: SBSM 210200Z 11011KT 9999 SCT025 BKN100 24/20 Q1012
Loading
Personal Weather Stations






























Interactive Weather Map New forecast layout! Learn more

10-Day Weather Forecast

Advertisements
Track Severe Weather on mobile